Mississippi Star — 9HA2441 — position and weather

sailwx.info

Track history (hours):
 
Tides and Currents Weather Stations Pressure Air Temp Water Temp Dewpoint Dewpoint Depression Visibility Wind Speed Wind Dir Waves Ship Positions

Mississippi Star

Last reported at 2016-Feb-06 08:32 UTC. Time now 2016-Feb-06 11:34 UTC.
Position N 50°55' E 001°10'.

Length 128 m; draft 6.2 m.

Type: Ship. MMSI: 248621000.

Date/timePositionNaut miles runAvg speedWind from/ knotsBaromVisibWave heightAir tempDewpointWater temp
2016-Feb-06 08:32N 50°55' E 001°10'1211.7
2016-Feb-06 07:33N 51°03' E 001°24'1313.1
2016-Feb-06 06:33N 51°11' E 001°40'1212.5
2016-Feb-06 05:33N 51°21' E 001°52'1212.2
2016-Feb-06 04:34N 51°31' E 002°04'1211.5
2016-Feb-06 03:33N 51°39' E 002°16'2110.6
2016-Feb-06 01:33N 51°55' E 002°40'4110.3
2016-Feb-05 21:33N 52°04' E 003°45'1010.5
2016-Feb-05 20:33N 52°00' E 004°01'1313.3
2016-Feb-05 19:33N 51°54' E 004°20'1 0.8
2016-Feb-05 18:32N 51°53' E 004°20'0 0.0
2016-Feb-05 17:32N 51°53' E 004°20'0 0.0
2016-Feb-05 16:32N 51°53' E 004°20'0 0.0
2016-Feb-05 15:32N 51°53' E 004°20'0 0.0
2016-Feb-05 14:32N 51°53' E 004°20'0 0.3
2016-Feb-05 13:34N 51°53' E 004°21'1 0.7
2016-Feb-05 12:25N 51°54' E 004°21'0 0.0
2016-Feb-05 11:28N 51°54' E 004°21'0 0.0
2016-Feb-05 10:31N 51°54' E 004°21'0 0.0
2016-Feb-05 09:28N 51°54' E 004°21'0 0.0
2016-Feb-05 08:31N 51°54' E 004°21'0 0.0
2016-Feb-05 07:25N 51°54' E 004°21'0 0.0
2016-Feb-05 06:28N 51°54' E 004°21'0 0.0
2016-Feb-05 05:31N 51°54' E 004°21'0 0.0
2016-Feb-05 04:31N 51°54' E 004°21'0 0.0
2016-Feb-05 03:22N 51°54' E 004°21'0 0.0
2016-Feb-05 02:31N 51°54' E 004°21'0 0.0
2016-Feb-05 01:31N 51°54' E 004°21'0 0.0
2016-Feb-05 00:28N 51°54' E 004°21'0 0.0
2016-Feb-04 23:31N 51°54' E 004°21'0 0.0
2016-Feb-04 22:31N 51°54' E 004°21'0 0.0
2016-Feb-04 21:25N 51°54' E 004°21'0 0.0
2016-Feb-04 20:31N 51°54' E 004°21'0 0.0
2016-Feb-04 19:28N 51°54' E 004°21'0 0.0
2016-Feb-04 18:33N 51°54' E 004°21'4 4.3
2016-Feb-04 17:33N 51°55' E 004°15'10 9.6
2016-Feb-04 16:33N 51°60' E 004°01'1010.5
2016-Feb-04 15:33N 52°02' E 003°45'7 0.7
2016-Feb-04 04:27N 52°08' E 003°38'2 0.2
2016-Feb-03 19:33N 52°10' E 003°37'98 9.7
2016-Feb-03 09:27N 53°33' E 005°00'7 7.6
2016-Feb-03 08:34N 53°36' E 005°11'8 7.9
2016-Feb-03 07:33N 53°38' E 005°24'8 8.0
2016-Feb-03 06:34N 53°41' E 005°36'8 7.5
2016-Feb-03 05:33N 53°44' E 005°48'7 6.6
2016-Feb-03 04:33N 53°45' E 005°59'5 5.1
2016-Feb-03 03:33N 53°47' E 006°07'4 4.2
2016-Feb-03 02:33N 53°48' E 006°14'4 4.2
2016-Feb-03 01:33N 53°49' E 006°21'4 4.2
2016-Feb-03 00:34N 53°50' E 006°28'4 4.2
2016-Feb-02 23:33N 53°52' E 006°35'5 4.5
2016-Feb-02 22:34N 53°53' E 006°42'5 4.6
2016-Feb-02 21:32N 53°54' E 006°50'4 4.1
2016-Feb-02 20:32N 53°55' E 006°56'5 4.6
2016-Feb-02 19:33N 53°56' E 007°04'6 5.6
2016-Feb-02 18:33N 53°58' E 007°13'6 5.9
2016-Feb-02 17:33N 53°59' E 007°23'5 5.4
2016-Feb-02 16:33N 54°00' E 007°32'6 5.6
2016-Feb-02 15:33N 54°02' E 007°41'5 5.4
2016-Feb-02 14:33N 54°02' E 007°50'5 5.3
2016-Feb-02 13:33N 54°02' E 007°59'6 5.8
2016-Feb-02 12:33N 54°01' E 008°09'8 7.6
2016-Feb-02 11:34N 53°60' E 008°21'1111.1
2016-Feb-02 10:33N 53°56' E 008°39'1211.7
2016-Feb-02 09:34N 53°51' E 008°57'7 7.2
2016-Feb-02 08:34N 53°54' E 009°09'2 1.8
2016-Feb-02 07:33N 53°55' E 009°11'29 5.4
2016-Feb-02 02:16N 54°18' E 009°40'5 7.3
2016-Feb-02 01:33N 54°21' E 009°47'4 3.9
2016-Feb-02 00:33N 54°21' E 009°53'6 5.6
2016-Feb-01 23:33N 54°22' E 010°03'3 3.4
2016-Feb-01 22:33N 54°22' E 010°09'1 1.3
2016-Feb-01 21:34N 54°23' E 010°11'3 2.9
2016-Feb-01 20:33N 54°25' E 010°13'6 6.5
2016-Feb-01 19:33N 54°30' E 010°19'9 9.1
2016-Feb-01 18:33N 54°34' E 010°34'10 9.9
2016-Feb-01 17:34N 54°40' E 010°47'1110.7
2016-Feb-01 16:33N 54°51' E 010°52'1111.5
2016-Feb-01 15:33N 55°01' E 011°01'1212.4
2016-Feb-01 14:33N 55°13' E 011°06'98 2.0
2016-Jan-30 14:33N 56°48' E 011°50'1414.0
2016-Jan-30 13:33N 57°01' E 011°42'1414.1
2016-Jan-30 12:33N 57°14' E 011°32'1413.6
2016-Jan-30 11:33N 57°27' E 011°24'1413.8
2016-Jan-30 10:34N 57°40' E 011°15'1414.0
2016-Jan-30 09:33N 57°52' E 011°02'1111.1
2016-Jan-30 08:34N 58°03' E 010°57'1110.7
2016-Jan-30 07:33N 58°14' E 010°54'10 9.7
2016-Jan-30 06:33N 58°23' E 010°50'8 8.0
2016-Jan-30 05:34N 58°31' E 010°46'7 7.2
2016-Jan-30 04:34N 58°38' E 010°43'7 7.0
2016-Jan-30 03:33N 58°45' E 010°41'6 6.2
2016-Jan-30 02:34N 58°51' E 010°39'7 6.9
2016-Jan-30 01:34N 58°58' E 010°37'8 7.6
2016-Jan-30 00:34N 59°05' E 010°32'9 9.1
2016-Jan-29 23:34N 59°14' E 010°37'1111.1
2016-Jan-29 22:34N 59°25' E 010°33'1111.3
2016-Jan-29 21:34N 59°36' E 010°38'1111.0
2016-Jan-29 20:34N 59°46' E 010°34'9 0.3
2016-Jan-28 14:33N 59°53' E 010°46'8 7.8
2016-Jan-28 13:33N 59°48' E 010°34'1212.1
2016-Jan-28 12:33N 59°36' E 010°38'1312.7
2016-Jan-28 11:33N 59°24' E 010°35'1313.4
2016-Jan-28 10:33N 59°10' E 010°40'9 9.2
2016-Jan-28 09:33N 59°01' E 010°44'10 9.7
2016-Jan-28 08:33N 58°55' E 010°29'1111.1
2016-Jan-28 07:33N 58°48' E 010°14'11810.4
2016-Jan-27 20:13N 57°44' E 007°05'811.4
2016-Jan-27 19:31N 57°44' E 006°50'1110.7
2016-Jan-27 18:32N 57°45' E 006°30'9 9.3
2016-Jan-27 17:33N 57°51' E 006°17'1010.4
2016-Jan-27 16:33N 57°57' E 006°02'1311.5
2016-Jan-27 15:23N 58°06' E 005°43'2210.7
2016-Jan-27 13:17N 58°21' E 005°10'811.0
2016-Jan-27 12:33N 58°27' E 005°00'1111.4
2016-Jan-27 11:33N 58°35' E 004°46'  
Track history (hours):
 
Tides and Currents Weather Stations Pressure Air Temp Water Temp Dewpoint Dewpoint Depression Visibility Wind Speed Wind Dir Waves Ship Positions

Mississippi Star

Last reported at 2016-Feb-06 08:32 UTC. Time now 2016-Feb-06 11:34 UTC.
Position N 50°55' E 001°10'.

Length 128 m; draft 6.2 m.

Type: Ship. MMSI: 248621000.

Date/timePositionNaut miles runAvg speedWind from/ knotsBaromVisibWave heightAir tempDewpointWater temp
2016-Feb-06 08:32N 50°55' E 001°10'1211.7
2016-Feb-06 07:33N 51°03' E 001°24'1313.1
2016-Feb-06 06:33N 51°11' E 001°40'1212.5
2016-Feb-06 05:33N 51°21' E 001°52'1212.2
2016-Feb-06 04:34N 51°31' E 002°04'1211.5
2016-Feb-06 03:33N 51°39' E 002°16'2110.6
2016-Feb-06 01:33N 51°55' E 002°40'4110.3
2016-Feb-05 21:33N 52°04' E 003°45'1010.5
2016-Feb-05 20:33N 52°00' E 004°01'1313.3
2016-Feb-05 19:33N 51°54' E 004°20'1 0.8
2016-Feb-05 18:32N 51°53' E 004°20'0 0.0
2016-Feb-05 17:32N 51°53' E 004°20'0 0.0
2016-Feb-05 16:32N 51°53' E 004°20'0 0.0
2016-Feb-05 15:32N 51°53' E 004°20'0 0.0
2016-Feb-05 14:32N 51°53' E 004°20'0 0.3
2016-Feb-05 13:34N 51°53' E 004°21'1 0.7
2016-Feb-05 12:25N 51°54' E 004°21'0 0.0
2016-Feb-05 11:28N 51°54' E 004°21'0 0.0
2016-Feb-05 10:31N 51°54' E 004°21'0 0.0
2016-Feb-05 09:28N 51°54' E 004°21'0 0.0
2016-Feb-05 08:31N 51°54' E 004°21'0 0.0
2016-Feb-05 07:25N 51°54' E 004°21'0 0.0
2016-Feb-05 06:28N 51°54' E 004°21'0 0.0
2016-Feb-05 05:31N 51°54' E 004°21'0 0.0
2016-Feb-05 04:31N 51°54' E 004°21'0 0.0
2016-Feb-05 03:22N 51°54' E 004°21'0 0.0
2016-Feb-05 02:31N 51°54' E 004°21'0 0.0
2016-Feb-05 01:31N 51°54' E 004°21'0 0.0
2016-Feb-05 00:28N 51°54' E 004°21'0 0.0
2016-Feb-04 23:31N 51°54' E 004°21'0 0.0
2016-Feb-04 22:31N 51°54' E 004°21'0 0.0
2016-Feb-04 21:25N 51°54' E 004°21'0 0.0
2016-Feb-04 20:31N 51°54' E 004°21'0 0.0
2016-Feb-04 19:28N 51°54' E 004°21'0 0.0
2016-Feb-04 18:33N 51°54' E 004°21'4 4.3
2016-Feb-04 17:33N 51°55' E 004°15'10 9.6
2016-Feb-04 16:33N 51°60' E 004°01'1010.5
2016-Feb-04 15:33N 52°02' E 003°45'7 0.7
2016-Feb-04 04:27N 52°08' E 003°38'2 0.2
2016-Feb-03 19:33N 52°10' E 003°37'98 9.7
2016-Feb-03 09:27N 53°33' E 005°00'7 7.6
2016-Feb-03 08:34N 53°36' E 005°11'8 7.9
2016-Feb-03 07:33N 53°38' E 005°24'8 8.0
2016-Feb-03 06:34N 53°41' E 005°36'8 7.5
2016-Feb-03 05:33N 53°44' E 005°48'7 6.6
2016-Feb-03 04:33N 53°45' E 005°59'5 5.1
2016-Feb-03 03:33N 53°47' E 006°07'4 4.2
2016-Feb-03 02:33N 53°48' E 006°14'4 4.2
2016-Feb-03 01:33N 53°49' E 006°21'4 4.2
2016-Feb-03 00:34N 53°50' E 006°28'4 4.2
2016-Feb-02 23:33N 53°52' E 006°35'5 4.5
2016-Feb-02 22:34N 53°53' E 006°42'5 4.6
2016-Feb-02 21:32N 53°54' E 006°50'4 4.1
2016-Feb-02 20:32N 53°55' E 006°56'5 4.6
2016-Feb-02 19:33N 53°56' E 007°04'6 5.6
2016-Feb-02 18:33N 53°58' E 007°13'6 5.9
2016-Feb-02 17:33N 53°59' E 007°23'5 5.4
2016-Feb-02 16:33N 54°00' E 007°32'6 5.6
2016-Feb-02 15:33N 54°02' E 007°41'5 5.4
2016-Feb-02 14:33N 54°02' E 007°50'5 5.3
2016-Feb-02 13:33N 54°02' E 007°59'6 5.8
2016-Feb-02 12:33N 54°01' E 008°09'8 7.6
2016-Feb-02 11:34N 53°60' E 008°21'1111.1
2016-Feb-02 10:33N 53°56' E 008°39'1211.7
2016-Feb-02 09:34N 53°51' E 008°57'7 7.2
2016-Feb-02 08:34N 53°54' E 009°09'2 1.8
2016-Feb-02 07:33N 53°55' E 009°11'29 5.4
2016-Feb-02 02:16N 54°18' E 009°40'5 7.3
2016-Feb-02 01:33N 54°21' E 009°47'4 3.9
2016-Feb-02 00:33N 54°21' E 009°53'6 5.6
2016-Feb-01 23:33N 54°22' E 010°03'3 3.4
2016-Feb-01 22:33N 54°22' E 010°09'1 1.3
2016-Feb-01 21:34N 54°23' E 010°11'3 2.9
2016-Feb-01 20:33N 54°25' E 010°13'6 6.5
2016-Feb-01 19:33N 54°30' E 010°19'9 9.1
2016-Feb-01 18:33N 54°34' E 010°34'10 9.9
2016-Feb-01 17:34N 54°40' E 010°47'1110.7
2016-Feb-01 16:33N 54°51' E 010°52'1111.5
2016-Feb-01 15:33N 55°01' E 011°01'1212.4
2016-Feb-01 14:33N 55°13' E 011°06'98 2.0
2016-Jan-30 14:33N 56°48' E 011°50'1414.0
2016-Jan-30 13:33N 57°01' E 011°42'1414.1
2016-Jan-30 12:33N 57°14' E 011°32'1413.6
2016-Jan-30 11:33N 57°27' E 011°24'1413.8
2016-Jan-30 10:34N 57°40' E 011°15'1414.0
2016-Jan-30 09:33N 57°52' E 011°02'1111.1
2016-Jan-30 08:34N 58°03' E 010°57'1110.7
2016-Jan-30 07:33N 58°14' E 010°54'10 9.7
2016-Jan-30 06:33N 58°23' E 010°50'8 8.0
2016-Jan-30 05:34N 58°31' E 010°46'7 7.2
2016-Jan-30 04:34N 58°38' E 010°43'7 7.0
2016-Jan-30 03:33N 58°45' E 010°41'6 6.2
2016-Jan-30 02:34N 58°51' E 010°39'7 6.9
2016-Jan-30 01:34N 58°58' E 010°37'8 7.6
2016-Jan-30 00:34N 59°05' E 010°32'9 9.1
2016-Jan-29 23:34N 59°14' E 010°37'1111.1
2016-Jan-29 22:34N 59°25' E 010°33'1111.3
2016-Jan-29 21:34N 59°36' E 010°38'1111.0
2016-Jan-29 20:34N 59°46' E 010°34'9 0.3
2016-Jan-28 14:33N 59°53' E 010°46'8 7.8
2016-Jan-28 13:33N 59°48' E 010°34'1212.1
2016-Jan-28 12:33N 59°36' E 010°38'1312.7
2016-Jan-28 11:33N 59°24' E 010°35'1313.4
2016-Jan-28 10:33N 59°10' E 010°40'9 9.2
2016-Jan-28 09:33N 59°01' E 010°44'10 9.7
2016-Jan-28 08:33N 58°55' E 010°29'1111.1
2016-Jan-28 07:33N 58°48' E 010°14'11810.4
2016-Jan-27 20:13N 57°44' E 007°05'811.4
2016-Jan-27 19:31N 57°44' E 006°50'1110.7
2016-Jan-27 18:32N 57°45' E 006°30'9 9.3
2016-Jan-27 17:33N 57°51' E 006°17'1010.4
2016-Jan-27 16:33N 57°57' E 006°02'1311.5
2016-Jan-27 15:23N 58°06' E 005°43'2210.7
2016-Jan-27 13:17N 58°21' E 005°10'811.0
2016-Jan-27 12:33N 58°27' E 005°00'1111.4
2016-Jan-27 11:33N 58°35' E 004°46'  

Dump ship's entire track history